sensor_id;sensor_type;location;lat;lon;timestamp;P1;durP1;ratioP1;P2;durP2;ratioP2
46014;SDS011;36844;51.898;-0.874;2024-03-23T00:54:35;2.05;;;0.98;;
46014;SDS011;36844;51.898;-0.874;2024-03-23T00:57:00;2.17;;;0.90;;
46014;SDS011;36844;51.898;-0.874;2024-03-23T00:59:25;1.67;;;0.82;;
46014;SDS011;36844;51.898;-0.874;2024-03-23T01:01:54;1.92;;;0.80;;
46014;SDS011;36844;51.898;-0.874;2024-03-23T01:04:19;4.18;;;0.90;;
46014;SDS011;36844;51.898;-0.874;2024-03-23T01:06:45;1.83;;;0.80;;
46014;SDS011;36844;51.898;-0.874;2024-03-23T01:09:10;1.83;;;0.80;;
46014;SDS011;36844;51.898;-0.874;2024-03-23T01:11:36;2.20;;;0.73;;
46014;SDS011;36844;51.898;-0.874;2024-03-23T01:14:02;2.78;;;1.30;;
46014;SDS011;36844;51.898;-0.874;2024-03-23T01:16:28;1.27;;;0.85;;
46014;SDS011;36844;51.898;-0.874;2024-03-23T01:18:53;1.38;;;0.70;;
46014;SDS011;36844;51.898;-0.874;2024-03-23T01:21:18;1.65;;;0.82;;
46014;SDS011;36844;51.898;-0.874;2024-03-23T01:23:44;1.67;;;0.77;;
46014;SDS011;36844;51.898;-0.874;2024-03-23T01:26:09;1.63;;;0.77;;
46014;SDS011;36844;51.898;-0.874;2024-03-23T01:28:35;1.40;;;0.80;;
46014;SDS011;36844;51.898;-0.874;2024-03-23T01:31:00;1.38;;;0.80;;
46014;SDS011;36844;51.898;-0.874;2024-03-23T01:33:25;3.58;;;1.25;;
46014;SDS011;36844;51.898;-0.874;2024-03-23T01:35:50;1.33;;;0.77;;
46014;SDS011;36844;51.898;-0.874;2024-03-23T01:38:16;0.80;;;0.50;;
46014;SDS011;36844;51.898;-0.874;2024-03-23T01:40:41;0.82;;;0.50;;
46014;SDS011;36844;51.898;-0.874;2024-03-23T01:43:07;1.60;;;0.88;;
46014;SDS011;36844;51.898;-0.874;2024-03-23T01:45:33;2.40;;;0.95;;
46014;SDS011;36844;51.898;-0.874;2024-03-23T01:47:59;0.90;;;0.70;;
46014;SDS011;36844;51.898;-0.874;2024-03-23T01:50:25;1.50;;;0.90;;
46014;SDS011;36844;51.898;-0.874;2024-03-23T01:52:51;1.30;;;0.90;;
46014;SDS011;36844;51.898;-0.874;2024-03-23T01:55:17;2.08;;;0.85;;
46014;SDS011;36844;51.898;-0.874;2024-03-23T01:57:42;1.80;;;0.73;;
46014;SDS011;36844;51.898;-0.874;2024-03-23T02:00:08;0.93;;;0.60;;
46014;SDS011;36844;51.898;-0.874;2024-03-23T02:02:35;0.80;;;0.68;;
46014;SDS011;36844;51.898;-0.874;2024-03-23T02:05:00;0.93;;;0.60;;
46014;SDS011;36844;51.898;-0.874;2024-03-23T02:07:26;2.58;;;1.00;;
46014;SDS011;36844;51.898;-0.874;2024-03-23T02:09:52;1.42;;;0.80;;
46014;SDS011;36844;51.898;-0.874;2024-03-23T02:12:17;0.70;;;0.55;;
46014;SDS011;36844;51.898;-0.874;2024-03-23T02:14:43;1.67;;;0.73;;
46014;SDS011;36844;51.898;-0.874;2024-03-23T02:17:08;1.00;;;0.60;;
46014;SDS011;36844;51.898;-0.874;2024-03-23T02:19:34;1.58;;;0.68;;
46014;SDS011;36844;51.898;-0.874;2024-03-23T02:21:59;2.00;;;0.85;;
46014;SDS011;36844;51.898;-0.874;2024-03-23T02:24:24;1.33;;;0.88;;
46014;SDS011;36844;51.898;-0.874;2024-03-23T02:26:50;0.65;;;0.52;;
46014;SDS011;36844;51.898;-0.874;2024-03-23T02:29:15;1.20;;;0.50;;
46014;SDS011;36844;51.898;-0.874;2024-03-23T02:31:40;1.40;;;0.90;;
46014;SDS011;36844;51.898;-0.874;2024-03-23T02:34:06;2.90;;;0.40;;
46014;SDS011;36844;51.898;-0.874;2024-03-23T02:36:31;0.65;;;0.60;;
46014;SDS011;36844;51.898;-0.874;2024-03-23T02:38:56;1.60;;;0.73;;
46014;SDS011;36844;51.898;-0.874;2024-03-23T02:41:22;1.65;;;0.60;;
46014;SDS011;36844;51.898;-0.874;2024-03-23T02:43:51;0.75;;;0.50;;
46014;SDS011;36844;51.898;-0.874;2024-03-23T02:46:16;19.23;;;1.67;;
46014;SDS011;36844;51.898;-0.874;2024-03-23T02:48:42;1.50;;;0.60;;
46014;SDS011;36844;51.898;-0.874;2024-03-23T02:51:08;4.03;;;1.10;;
46014;SDS011;36844;51.898;-0.874;2024-03-23T02:53:33;1.98;;;0.80;;
46014;SDS011;36844;51.898;-0.874;2024-03-23T02:55:58;1.08;;;0.57;;
46014;SDS011;36844;51.898;-0.874;2024-03-23T02:58:24;0.50;;;0.40;;
46014;SDS011;36844;51.898;-0.874;2024-03-23T03:00:49;3.45;;;1.05;;
46014;SDS011;36844;51.898;-0.874;2024-03-23T03:03:14;2.03;;;0.60;;
46014;SDS011;36844;51.898;-0.874;2024-03-23T03:05:40;0.93;;;0.47;;
46014;SDS011;36844;51.898;-0.874;2024-03-23T03:08:05;1.75;;;0.73;;
46014;SDS011;36844;51.898;-0.874;2024-03-23T03:10:31;0.75;;;0.60;;
46014;SDS011;36844;51.898;-0.874;2024-03-23T03:12:59;1.45;;;0.88;;
46014;SDS011;36844;51.898;-0.874;2024-03-23T03:15:25;1.40;;;0.60;;
46014;SDS011;36844;51.898;-0.874;2024-03-23T03:17:50;1.60;;;0.80;;
46014;SDS011;36844;51.898;-0.874;2024-03-23T03:20:15;1.20;;;0.50;;
46014;SDS011;36844;51.898;-0.874;2024-03-23T03:22:42;0.98;;;0.60;;
46014;SDS011;36844;51.898;-0.874;2024-03-23T03:25:08;1.75;;;0.75;;
46014;SDS011;36844;51.898;-0.874;2024-03-23T03:27:33;2.85;;;1.08;;
46014;SDS011;36844;51.898;-0.874;2024-03-23T03:29:59;1.27;;;0.55;;
46014;SDS011;36844;51.898;-0.874;2024-03-23T03:32:27;2.28;;;0.93;;
46014;SDS011;36844;51.898;-0.874;2024-03-23T03:34:54;0.45;;;0.40;;
46014;SDS011;36844;51.898;-0.874;2024-03-23T03:37:19;1.30;;;0.57;;
46014;SDS011;36844;51.898;-0.874;2024-03-23T03:39:44;2.00;;;0.50;;
46014;SDS011;36844;51.898;-0.874;2024-03-23T03:42:09;1.45;;;0.73;;
46014;SDS011;36844;51.898;-0.874;2024-03-23T03:44:35;1.10;;;0.70;;
46014;SDS011;36844;51.898;-0.874;2024-03-23T03:47:01;1.27;;;0.45;;
46014;SDS011;36844;51.898;-0.874;2024-03-23T03:49:27;3.17;;;0.60;;
46014;SDS011;36844;51.898;-0.874;2024-03-23T03:51:52;1.30;;;0.70;;
46014;SDS011;36844;51.898;-0.874;2024-03-23T03:54:18;1.20;;;0.57;;
46014;SDS011;36844;51.898;-0.874;2024-03-23T03:56:43;1.05;;;0.68;;
46014;SDS011;36844;51.898;-0.874;2024-03-23T03:59:08;0.80;;;0.38;;
46014;SDS011;36844;51.898;-0.874;2024-03-23T04:01:34;2.33;;;0.50;;
46014;SDS011;36844;51.898;-0.874;2024-03-23T04:04:00;0.57;;;0.40;;
46014;SDS011;36844;51.898;-0.874;2024-03-23T04:06:25;1.20;;;0.40;;
46014;SDS011;36844;51.898;-0.874;2024-03-23T04:08:51;0.73;;;0.60;;
46014;SDS011;36844;51.898;-0.874;2024-03-23T04:11:16;1.10;;;0.60;;
46014;SDS011;36844;51.898;-0.874;2024-03-23T04:13:41;1.17;;;0.52;;
46014;SDS011;36844;51.898;-0.874;2024-03-23T04:16:07;1.00;;;0.47;;
46014;SDS011;36844;51.898;-0.874;2024-03-23T04:18:32;2.33;;;0.73;;
46014;SDS011;36844;51.898;-0.874;2024-03-23T04:20:57;1.45;;;0.70;;
46014;SDS011;36844;51.898;-0.874;2024-03-23T04:23:23;1.00;;;0.60;;
46014;SDS011;36844;51.898;-0.874;2024-03-23T04:25:48;0.85;;;0.60;;
46014;SDS011;36844;51.898;-0.874;2024-03-23T04:28:13;2.08;;;0.60;;
46014;SDS011;36844;51.898;-0.874;2024-03-23T04:30:38;2.05;;;0.85;;
46014;SDS011;36844;51.898;-0.874;2024-03-23T04:33:04;2.45;;;0.60;;
46014;SDS011;36844;51.898;-0.874;2024-03-23T04:35:30;0.90;;;0.55;;
46014;SDS011;36844;51.898;-0.874;2024-03-23T04:37:55;0.55;;;0.50;;
46014;SDS011;36844;51.898;-0.874;2024-03-23T04:40:20;1.33;;;0.50;;
46014;SDS011;36844;51.898;-0.874;2024-03-23T04:42:46;0.98;;;0.50;;
46014;SDS011;36844;51.898;-0.874;2024-03-23T04:45:12;1.55;;;0.75;;
46014;SDS011;36844;51.898;-0.874;2024-03-23T04:47:37;0.35;;;0.35;;
46014;SDS011;36844;51.898;-0.874;2024-03-23T04:50:03;0.50;;;0.40;;
46014;SDS011;36844;51.898;-0.874;2024-03-23T04:52:29;1.60;;;0.50;;
46014;SDS011;36844;51.898;-0.874;2024-03-23T04:54:54;1.25;;;0.70;;
46014;SDS011;36844;51.898;-0.874;2024-03-23T04:57:20;0.95;;;0.43;;
46014;SDS011;36844;51.898;-0.874;2024-03-23T04:59:45;1.92;;;0.63;;
46014;SDS011;36844;51.898;-0.874;2024-03-23T05:02:10;1.85;;;0.77;;
46014;SDS011;36844;51.898;-0.874;2024-03-23T05:04:36;1.05;;;0.60;;
46014;SDS011;36844;51.898;-0.874;2024-03-23T05:07:02;0.63;;;0.30;;
46014;SDS011;36844;51.898;-0.874;2024-03-23T05:09:28;0.75;;;0.65;;
46014;SDS011;36844;51.898;-0.874;2024-03-23T05:11:55;0.35;;;0.35;;
46014;SDS011;36844;51.898;-0.874;2024-03-23T05:14:21;0.75;;;0.40;;
46014;SDS011;36844;51.898;-0.874;2024-03-23T05:16:46;0.60;;;0.47;;
46014;SDS011;36844;51.898;-0.874;2024-03-23T05:19:12;0.35;;;0.35;;
46014;SDS011;36844;51.898;-0.874;2024-03-23T05:21:37;1.80;;;0.60;;
46014;SDS011;36844;51.898;-0.874;2024-03-23T05:24:02;5.72;;;1.15;;
46014;SDS011;36844;51.898;-0.874;2024-03-23T05:26:28;1.33;;;0.82;;
46014;SDS011;36844;51.898;-0.874;2024-03-23T05:28:53;1.05;;;0.50;;
46014;SDS011;36844;51.898;-0.874;2024-03-23T05:31:23;2.33;;;0.70;;
46014;SDS011;36844;51.898;-0.874;2024-03-23T05:33:49;0.40;;;0.40;;
46014;SDS011;36844;51.898;-0.874;2024-03-23T05:36:14;0.38;;;0.30;;
46014;SDS011;36844;51.898;-0.874;2024-03-23T05:38:39;0.60;;;0.40;;
46014;SDS011;36844;51.898;-0.874;2024-03-23T05:41:05;0.75;;;0.40;;
46014;SDS011;36844;51.898;-0.874;2024-03-23T05:43:30;1.33;;;0.50;;
46014;SDS011;36844;51.898;-0.874;2024-03-23T05:45:56;1.05;;;0.50;;
46014;SDS011;36844;51.898;-0.874;2024-03-23T05:48:22;0.93;;;0.50;;
46014;SDS011;36844;51.898;-0.874;2024-03-23T05:50:48;1.10;;;0.63;;
46014;SDS011;36844;51.898;-0.874;2024-03-23T05:53:15;1.00;;;0.45;;
46014;SDS011;36844;51.898;-0.874;2024-03-23T05:55:40;1.23;;;0.68;;
46014;SDS011;36844;51.898;-0.874;2024-03-23T05:58:06;0.95;;;0.40;;
46014;SDS011;36844;51.898;-0.874;2024-03-23T06:00:31;1.70;;;0.45;;
46014;SDS011;36844;51.898;-0.874;2024-03-23T06:02:56;1.35;;;0.70;;
46014;SDS011;36844;51.898;-0.874;2024-03-23T06:05:22;0.80;;;0.30;;
46014;SDS011;36844;51.898;-0.874;2024-03-23T06:07:48;3.20;;;1.00;;
46014;SDS011;36844;51.898;-0.874;2024-03-23T06:10:14;1.95;;;0.40;;
46014;SDS011;36844;51.898;-0.874;2024-03-23T06:12:40;3.40;;;1.08;;
46014;SDS011;36844;51.898;-0.874;2024-03-23T06:15:06;2.55;;;0.50;;
46014;SDS011;36844;51.898;-0.874;2024-03-23T06:17:35;1.85;;;0.60;;
46014;SDS011;36844;51.898;-0.874;2024-03-23T06:20:01;0.45;;;0.40;;
46014;SDS011;36844;51.898;-0.874;2024-03-23T06:22:26;0.45;;;0.40;;
46014;SDS011;36844;51.898;-0.874;2024-03-23T06:24:51;1.25;;;0.43;;
46014;SDS011;36844;51.898;-0.874;2024-03-23T06:27:17;0.50;;;0.40;;
46014;SDS011;36844;51.898;-0.874;2024-03-23T06:29:42;2.22;;;0.50;;
46014;SDS011;36844;51.898;-0.874;2024-03-23T06:32:08;0.75;;;0.50;;
46014;SDS011;36844;51.898;-0.874;2024-03-23T06:34:33;1.75;;;0.40;;
46014;SDS011;36844;51.898;-0.874;2024-03-23T06:36:58;0.77;;;0.43;;
46014;SDS011;36844;51.898;-0.874;2024-03-23T06:39:24;0.93;;;0.38;;
46014;SDS011;36844;51.898;-0.874;2024-03-23T06:41:53;1.42;;;0.50;;
46014;SDS011;36844;51.898;-0.874;2024-03-23T06:44:19;0.80;;;0.57;;
46014;SDS011;36844;51.898;-0.874;2024-03-23T06:46:45;0.43;;;0.43;;
46014;SDS011;36844;51.898;-0.874;2024-03-23T06:49:10;1.00;;;0.50;;
46014;SDS011;36844;51.898;-0.874;2024-03-23T06:51:36;1.33;;;0.50;;
46014;SDS011;36844;51.898;-0.874;2024-03-23T06:54:02;1.08;;;0.50;;
46014;SDS011;36844;51.898;-0.874;2024-03-23T06:56:28;0.75;;;0.40;;
46014;SDS011;36844;51.898;-0.874;2024-03-23T06:58:54;1.55;;;0.43;;
46014;SDS011;36844;51.898;-0.874;2024-03-23T07:01:19;1.73;;;0.60;;
46014;SDS011;36844;51.898;-0.874;2024-03-23T07:03:44;0.63;;;0.45;;
46014;SDS011;36844;51.898;-0.874;2024-03-23T07:06:10;0.77;;;0.50;;
46014;SDS011;36844;51.898;-0.874;2024-03-23T07:08:35;0.93;;;0.57;;
46014;SDS011;36844;51.898;-0.874;2024-03-23T07:11:00;4.72;;;1.05;;
46014;SDS011;36844;51.898;-0.874;2024-03-23T07:13:27;3.42;;;0.70;;
46014;SDS011;36844;51.898;-0.874;2024-03-23T07:15:53;5.97;;;1.00;;
46014;SDS011;36844;51.898;-0.874;2024-03-23T07:18:20;2.80;;;0.90;;
46014;SDS011;36844;51.898;-0.874;2024-03-23T07:20:54;4.57;;;1.15;;
46014;SDS011;36844;51.898;-0.874;2024-03-23T07:23:24;6.65;;;0.82;;
46014;SDS011;36844;51.898;-0.874;2024-03-23T07:25:56;4.53;;;0.80;;
46014;SDS011;36844;51.898;-0.874;2024-03-23T07:28:22;8.30;;;0.75;;
46014;SDS011;36844;51.898;-0.874;2024-03-23T07:30:47;2.63;;;0.85;;
46014;SDS011;36844;51.898;-0.874;2024-03-23T07:33:12;1.50;;;0.80;;
46014;SDS011;36844;51.898;-0.874;2024-03-23T07:35:37;18.85;;;0.98;;
46014;SDS011;36844;51.898;-0.874;2024-03-23T07:38:03;2.38;;;0.60;;
46014;SDS011;36844;51.898;-0.874;2024-03-23T07:40:30;1.02;;;0.50;;
46014;SDS011;36844;51.898;-0.874;2024-03-23T07:42:55;3.30;;;0.93;;
46014;SDS011;36844;51.898;-0.874;2024-03-23T07:45:21;2.17;;;0.80;;
46014;SDS011;36844;51.898;-0.874;2024-03-23T07:47:46;3.10;;;1.08;;
46014;SDS011;36844;51.898;-0.874;2024-03-23T07:50:11;2.88;;;0.50;;
46014;SDS011;36844;51.898;-0.874;2024-03-23T07:52:37;4.13;;;1.10;;
46014;SDS011;36844;51.898;-0.874;2024-03-23T07:55:02;2.47;;;0.57;;
46014;SDS011;36844;51.898;-0.874;2024-03-23T07:57:28;2.38;;;0.77;;
46014;SDS011;36844;51.898;-0.874;2024-03-23T07:59:53;2.33;;;0.55;;
46014;SDS011;36844;51.898;-0.874;2024-03-23T08:02:18;3.15;;;0.80;;
46014;SDS011;36844;51.898;-0.874;2024-03-23T08:04:43;3.72;;;0.70;;
46014;SDS011;36844;51.898;-0.874;2024-03-23T08:07:09;2.80;;;0.60;;
46014;SDS011;36844;51.898;-0.874;2024-03-23T08:09:34;6.80;;;1.13;;
46014;SDS011;36844;51.898;-0.874;2024-03-23T08:11:59;4.70;;;1.08;;
46014;SDS011;36844;51.898;-0.874;2024-03-23T08:14:25;1.05;;;0.45;;
46014;SDS011;36844;51.898;-0.874;2024-03-23T08:16:50;2.95;;;0.52;;
46014;SDS011;36844;51.898;-0.874;2024-03-23T08:19:16;4.82;;;0.73;;
46014;SDS011;36844;51.898;-0.874;2024-03-23T08:21:41;3.88;;;0.80;;
46014;SDS011;36844;51.898;-0.874;2024-03-23T08:24:07;1.08;;;0.68;;
46014;SDS011;36844;51.898;-0.874;2024-03-23T08:26:32;2.97;;;1.20;;
46014;SDS011;36844;51.898;-0.874;2024-03-23T08:28:58;2.05;;;0.55;;
46014;SDS011;36844;51.898;-0.874;2024-03-23T08:31:23;2.97;;;0.70;;
46014;SDS011;36844;51.898;-0.874;2024-03-23T08:33:48;1.83;;;0.50;;
46014;SDS011;36844;51.898;-0.874;2024-03-23T08:36:14;2.28;;;0.82;;
46014;SDS011;36844;51.898;-0.874;2024-03-23T08:38:39;2.40;;;0.77;;
46014;SDS011;36844;51.898;-0.874;2024-03-23T08:41:09;3.08;;;0.90;;
46014;SDS011;36844;51.898;-0.874;2024-03-23T08:43:36;1.10;;;0.57;;
46014;SDS011;36844;51.898;-0.874;2024-03-23T08:46:05;3.40;;;0.95;;
46014;SDS011;36844;51.898;-0.874;2024-03-23T08:48:35;6.65;;;0.73;;
46014;SDS011;36844;51.898;-0.874;2024-03-23T08:51:07;2.42;;;1.00;;
46014;SDS011;36844;51.898;-0.874;2024-03-23T08:53:34;2.65;;;0.98;;
46014;SDS011;36844;51.898;-0.874;2024-03-23T08:56:00;0.77;;;0.55;;
46014;SDS011;36844;51.898;-0.874;2024-03-23T08:58:26;2.22;;;1.00;;
46014;SDS011;36844;51.898;-0.874;2024-03-23T09:00:53;2.60;;;0.70;;
46014;SDS011;36844;51.898;-0.874;2024-03-23T09:03:21;5.50;;;1.10;;
46014;SDS011;36844;51.898;-0.874;2024-03-23T09:05:47;1.40;;;0.60;;
46014;SDS011;36844;51.898;-0.874;2024-03-23T09:08:12;1.90;;;0.60;;
46014;SDS011;36844;51.898;-0.874;2024-03-23T09:10:41;5.10;;;1.40;;
46014;SDS011;36844;51.898;-0.874;2024-03-23T09:13:07;1.83;;;0.77;;
46014;SDS011;36844;51.898;-0.874;2024-03-23T09:15:33;2.05;;;0.88;;
46014;SDS011;36844;51.898;-0.874;2024-03-23T09:17:59;12.55;;;1.50;;
46014;SDS011;36844;51.898;-0.874;2024-03-23T09:20:25;6.28;;;0.93;;
46014;SDS011;36844;51.898;-0.874;2024-03-23T09:22:50;11.27;;;1.65;;
46014;SDS011;36844;51.898;-0.874;2024-03-23T09:25:16;16.48;;;1.27;;
46014;SDS011;36844;51.898;-0.874;2024-03-23T09:27:41;22.23;;;1.88;;
46014;SDS011;36844;51.898;-0.874;2024-03-23T09:30:06;15.38;;;2.45;;
46014;SDS011;36844;51.898;-0.874;2024-03-23T09:32:32;20.77;;;2.03;;
46014;SDS011;36844;51.898;-0.874;2024-03-23T09:34:57;11.20;;;2.45;;
46014;SDS011;36844;51.898;-0.874;2024-03-23T09:37:23;29.60;;;2.97;;
46014;SDS011;36844;51.898;-0.874;2024-03-23T09:39:48;16.20;;;2.50;;
46014;SDS011;36844;51.898;-0.874;2024-03-23T09:42:13;15.73;;;1.88;;
46014;SDS011;36844;51.898;-0.874;2024-03-23T09:44:39;13.25;;;2.25;;
46014;SDS011;36844;51.898;-0.874;2024-03-23T09:47:05;17.98;;;2.33;;
46014;SDS011;36844;51.898;-0.874;2024-03-23T09:49:30;15.98;;;2.17;;
46014;SDS011;36844;51.898;-0.874;2024-03-23T09:51:57;12.35;;;1.30;;
46014;SDS011;36844;51.898;-0.874;2024-03-23T09:54:23;11.20;;;1.63;;
46014;SDS011;36844;51.898;-0.874;2024-03-23T09:56:48;6.63;;;1.25;;
46014;SDS011;36844;51.898;-0.874;2024-03-23T09:59:13;5.40;;;1.45;;
46014;SDS011;36844;51.898;-0.874;2024-03-23T10:01:39;8.52;;;1.75;;
46014;SDS011;36844;51.898;-0.874;2024-03-23T10:04:04;6.65;;;1.42;;
46014;SDS011;36844;51.898;-0.874;2024-03-23T10:06:30;12.02;;;1.73;;
46014;SDS011;36844;51.898;-0.874;2024-03-23T10:08:55;15.93;;;3.50;;
46014;SDS011;36844;51.898;-0.874;2024-03-23T10:11:21;9.65;;;2.10;;
46014;SDS011;36844;51.898;-0.874;2024-03-23T10:13:46;10.80;;;2.60;;
46014;SDS011;36844;51.898;-0.874;2024-03-23T10:16:20;9.23;;;2.40;;
46014;SDS011;36844;51.898;-0.874;2024-03-23T10:18:47;12.68;;;3.15;;
46014;SDS011;36844;51.898;-0.874;2024-03-23T10:21:13;16.25;;;2.92;;
46014;SDS011;36844;51.898;-0.874;2024-03-23T10:23:40;16.75;;;3.05;;
46014;SDS011;36844;51.898;-0.874;2024-03-23T10:26:20;13.90;;;3.47;;
46014;SDS011;36844;51.898;-0.874;2024-03-23T10:29:05;25.05;;;3.80;;
46014;SDS011;36844;51.898;-0.874;2024-03-23T10:31:33;32.63;;;4.05;;
46014;SDS011;36844;51.898;-0.874;2024-03-23T10:34:02;14.10;;;3.85;;
46014;SDS011;36844;51.898;-0.874;2024-03-23T10:36:29;16.20;;;3.20;;
46014;SDS011;36844;51.898;-0.874;2024-03-23T10:38:58;12.48;;;3.03;;
46014;SDS011;36844;51.898;-0.874;2024-03-23T10:41:31;12.80;;;3.85;;
46014;SDS011;36844;51.898;-0.874;2024-03-23T10:43:57;24.90;;;3.50;;
46014;SDS011;36844;51.898;-0.874;2024-03-23T10:46:23;25.55;;;3.80;;
46014;SDS011;36844;51.898;-0.874;2024-03-23T10:48:48;16.52;;;3.63;;
46014;SDS011;36844;51.898;-0.874;2024-03-23T10:51:14;22.35;;;4.43;;
46014;SDS011;36844;51.898;-0.874;2024-03-23T10:53:39;20.52;;;3.67;;
46014;SDS011;36844;51.898;-0.874;2024-03-23T10:56:05;27.00;;;3.80;;
46014;SDS011;36844;51.898;-0.874;2024-03-23T10:58:43;26.85;;;4.25;;
46014;SDS011;36844;51.898;-0.874;2024-03-23T11:01:11;10.57;;;2.70;;
46014;SDS011;36844;51.898;-0.874;2024-03-23T11:03:37;14.40;;;3.03;;
46014;SDS011;36844;51.898;-0.874;2024-03-23T11:06:04;24.90;;;3.05;;
46014;SDS011;36844;51.898;-0.874;2024-03-23T11:08:31;17.27;;;3.38;;
46014;SDS011;36844;51.898;-0.874;2024-03-23T11:11:19;15.63;;;3.42;;
46014;SDS011;36844;51.898;-0.874;2024-03-23T11:13:49;12.90;;;3.00;;
46014;SDS011;36844;51.898;-0.874;2024-03-23T11:16:16;26.85;;;3.55;;
46014;SDS011;36844;51.898;-0.874;2024-03-23T11:18:46;10.93;;;2.05;;
46014;SDS011;36844;51.898;-0.874;2024-03-23T11:21:13;10.10;;;2.67;;
46014;SDS011;36844;51.898;-0.874;2024-03-23T11:24:15;7.22;;;2.45;;
46014;SDS011;36844;51.898;-0.874;2024-03-23T11:26:40;10.57;;;2.47;;
46014;SDS011;36844;51.898;-0.874;2024-03-23T11:29:12;10.70;;;2.63;;
46014;SDS011;36844;51.898;-0.874;2024-03-23T11:31:45;6.10;;;1.95;;
46014;SDS011;36844;51.898;-0.874;2024-03-23T11:34:17;8.38;;;2.50;;
46014;SDS011;36844;51.898;-0.874;2024-03-23T11:36:43;11.35;;;3.05;;
46014;SDS011;36844;51.898;-0.874;2024-03-23T11:39:16;4.32;;;1.63;;
46014;SDS011;36844;51.898;-0.874;2024-03-23T11:41:56;11.95;;;2.92;;
46014;SDS011;36844;51.898;-0.874;2024-03-23T11:44:22;5.15;;;1.98;;
46014;SDS011;36844;51.898;-0.874;2024-03-23T11:46:48;4.65;;;1.85;;
46014;SDS011;36844;51.898;-0.874;2024-03-23T11:51:49;6.43;;;1.77;;
46014;SDS011;36844;51.898;-0.874;2024-03-23T11:54:15;5.95;;;1.90;;
46014;SDS011;36844;51.898;-0.874;2024-03-23T11:56:53;7.45;;;2.13;;
46014;SDS011;36844;51.898;-0.874;2024-03-23T11:59:30;5.45;;;1.77;;
46014;SDS011;36844;51.898;-0.874;2024-03-23T12:01:56;6.65;;;1.80;;
46014;SDS011;36844;51.898;-0.874;2024-03-23T12:04:28;7.30;;;1.42;;
46014;SDS011;36844;51.898;-0.874;2024-03-23T12:07:13;3.80;;;1.33;;
46014;SDS011;36844;51.898;-0.874;2024-03-23T12:09:40;9.18;;;2.15;;
46014;SDS011;36844;51.898;-0.874;2024-03-23T12:12:24;5.38;;;1.90;;
46014;SDS011;36844;51.898;-0.874;2024-03-23T12:15:06;6.47;;;1.73;;
46014;SDS011;36844;51.898;-0.874;2024-03-23T12:17:34;5.82;;;1.77;;
46014;SDS011;36844;51.898;-0.874;2024-03-23T12:20:00;3.58;;;1.33;;
46014;SDS011;36844;51.898;-0.874;2024-03-23T12:22:26;6.57;;;1.48;;
46014;SDS011;36844;51.898;-0.874;2024-03-23T12:24:52;5.35;;;1.85;;
46014;SDS011;36844;51.898;-0.874;2024-03-23T12:27:17;4.30;;;1.38;;
46014;SDS011;36844;51.898;-0.874;2024-03-23T12:29:43;4.47;;;1.33;;
46014;SDS011;36844;51.898;-0.874;2024-03-23T12:32:10;4.03;;;1.20;;
46014;SDS011;36844;51.898;-0.874;2024-03-23T12:34:36;1.55;;;1.02;;
46014;SDS011;36844;51.898;-0.874;2024-03-23T12:37:01;3.33;;;1.30;;
46014;SDS011;36844;51.898;-0.874;2024-03-23T12:39:26;2.92;;;1.13;;
46014;SDS011;36844;51.898;-0.874;2024-03-23T12:41:52;5.07;;;1.00;;
46014;SDS011;36844;51.898;-0.874;2024-03-23T12:44:20;5.45;;;1.42;;
46014;SDS011;36844;51.898;-0.874;2024-03-23T12:46:46;3.10;;;1.40;;
46014;SDS011;36844;51.898;-0.874;2024-03-23T12:49:11;4.25;;;1.27;;
46014;SDS011;36844;51.898;-0.874;2024-03-23T12:51:37;2.88;;;1.15;;
46014;SDS011;36844;51.898;-0.874;2024-03-23T12:54:02;4.43;;;1.13;;
46014;SDS011;36844;51.898;-0.874;2024-03-23T12:56:28;3.20;;;1.08;;
46014;SDS011;36844;51.898;-0.874;2024-03-23T12:58:53;21.45;;;2.72;;
46014;SDS011;36844;51.898;-0.874;2024-03-23T13:01:20;3.30;;;1.15;;
46014;SDS011;36844;51.898;-0.874;2024-03-23T13:03:49;1.73;;;0.63;;
46014;SDS011;36844;51.898;-0.874;2024-03-23T13:06:16;2.10;;;1.02;;
46014;SDS011;36844;51.898;-0.874;2024-03-23T13:08:46;1.40;;;0.90;;
46014;SDS011;36844;51.898;-0.874;2024-03-23T13:11:12;2.67;;;0.80;;
46014;SDS011;36844;51.898;-0.874;2024-03-23T13:13:39;4.50;;;1.60;;
46014;SDS011;36844;51.898;-0.874;2024-03-23T13:16:04;1.70;;;0.82;;
46014;SDS011;36844;51.898;-0.874;2024-03-23T13:18:30;0.75;;;0.52;;
46014;SDS011;36844;51.898;-0.874;2024-03-23T13:20:56;1.00;;;0.70;;
46014;SDS011;36844;51.898;-0.874;2024-03-23T13:23:22;1.83;;;0.73;;
46014;SDS011;36844;51.898;-0.874;2024-03-23T13:25:51;3.30;;;1.65;;
46014;SDS011;36844;51.898;-0.874;2024-03-23T13:28:17;2.00;;;0.60;;
46014;SDS011;36844;51.898;-0.874;2024-03-23T13:30:53;1.25;;;0.55;;
46014;SDS011;36844;51.898;-0.874;2024-03-23T13:33:19;4.10;;;0.82;;
46014;SDS011;36844;51.898;-0.874;2024-03-23T13:35:51;1.98;;;0.73;;
46014;SDS011;36844;51.898;-0.874;2024-03-23T13:38:17;2.08;;;0.85;;
46014;SDS011;36844;51.898;-0.874;2024-03-23T13:40:55;2.70;;;1.02;;
46014;SDS011;36844;51.898;-0.874;2024-03-23T13:43:22;3.50;;;0.93;;
46014;SDS011;36844;51.898;-0.874;2024-03-23T13:45:48;1.50;;;0.65;;
46014;SDS011;36844;51.898;-0.874;2024-03-23T13:48:16;3.85;;;0.63;;
46014;SDS011;36844;51.898;-0.874;2024-03-23T13:50:43;1.83;;;0.80;;
46014;SDS011;36844;51.898;-0.874;2024-03-23T13:53:08;2.83;;;0.65;;
46014;SDS011;36844;51.898;-0.874;2024-03-23T13:55:34;1.80;;;0.60;;
46014;SDS011;36844;51.898;-0.874;2024-03-23T13:57:59;4.85;;;0.77;;
46014;SDS011;36844;51.898;-0.874;2024-03-23T14:00:24;1.20;;;0.40;;
46014;SDS011;36844;51.898;-0.874;2024-03-23T14:02:50;0.73;;;0.55;;
46014;SDS011;36844;51.898;-0.874;2024-03-23T14:05:15;1.25;;;0.55;;
46014;SDS011;36844;51.898;-0.874;2024-03-23T14:07:40;1.48;;;0.90;;
46014;SDS011;36844;51.898;-0.874;2024-03-23T14:10:06;0.88;;;0.60;;
46014;SDS011;36844;51.898;-0.874;2024-03-23T14:12:32;4.82;;;0.73;;
46014;SDS011;36844;51.898;-0.874;2024-03-23T14:14:57;2.50;;;1.15;;
46014;SDS011;36844;51.898;-0.874;2024-03-23T14:17:23;2.85;;;0.52;;
46014;SDS011;36844;51.898;-0.874;2024-03-23T14:19:48;3.42;;;0.80;;
46014;SDS011;36844;51.898;-0.874;2024-03-23T14:22:15;4.32;;;0.50;;
46014;SDS011;36844;51.898;-0.874;2024-03-23T14:24:41;1.10;;;0.60;;
46014;SDS011;36844;51.898;-0.874;2024-03-23T14:27:07;1.27;;;0.55;;
46014;SDS011;36844;51.898;-0.874;2024-03-23T14:29:32;1.77;;;0.75;;
46014;SDS011;36844;51.898;-0.874;2024-03-23T14:31:59;1.50;;;0.38;;
46014;SDS011;36844;51.898;-0.874;2024-03-23T14:34:25;2.42;;;0.63;;
46014;SDS011;36844;51.898;-0.874;2024-03-23T14:36:53;1.02;;;0.40;;
46014;SDS011;36844;51.898;-0.874;2024-03-23T14:39:22;2.13;;;0.40;;
46014;SDS011;36844;51.898;-0.874;2024-03-23T14:41:47;5.45;;;0.68;;
46014;SDS011;36844;51.898;-0.874;2024-03-23T14:44:13;1.17;;;0.63;;
46014;SDS011;36844;51.898;-0.874;2024-03-23T14:46:38;2.22;;;0.60;;
46014;SDS011;36844;51.898;-0.874;2024-03-23T14:49:03;0.75;;;0.40;;
46014;SDS011;36844;51.898;-0.874;2024-03-23T14:51:29;0.85;;;0.43;;
46014;SDS011;36844;51.898;-0.874;2024-03-23T14:53:54;1.30;;;0.40;;
46014;SDS011;36844;51.898;-0.874;2024-03-23T14:56:19;1.15;;;0.38;;
46014;SDS011;36844;51.898;-0.874;2024-03-23T14:58:44;2.13;;;0.65;;
46014;SDS011;36844;51.898;-0.874;2024-03-23T15:01:10;1.65;;;0.30;;
46014;SDS011;36844;51.898;-0.874;2024-03-23T15:03:39;2.42;;;0.30;;
46014;SDS011;36844;51.898;-0.874;2024-03-23T15:06:05;1.85;;;0.70;;
46014;SDS011;36844;51.898;-0.874;2024-03-23T15:08:31;0.47;;;0.28;;
46014;SDS011;36844;51.898;-0.874;2024-03-23T15:10:59;2.28;;;0.55;;
46014;SDS011;36844;51.898;-0.874;2024-03-23T15:13:25;1.00;;;0.50;;
46014;SDS011;36844;51.898;-0.874;2024-03-23T15:15:51;3.15;;;0.70;;
46014;SDS011;36844;51.898;-0.874;2024-03-23T15:18:17;0.98;;;0.30;;
46014;SDS011;36844;51.898;-0.874;2024-03-23T15:20:54;0.90;;;0.30;;
46014;SDS011;36844;51.898;-0.874;2024-03-23T15:23:27;0.80;;;0.60;;
46014;SDS011;36844;51.898;-0.874;2024-03-23T15:25:59;1.98;;;0.50;;